sensor_id;sensor_type;location;lat;lon;timestamp;P1;durP1;ratioP1;P2;durP2;ratioP2
16101;SDS011;56411;52.964;10.540;2023-04-01T00:01:58;7.90;;;2.70;;
16101;SDS011;56411;52.964;10.540;2023-04-01T00:04:25;8.47;;;3.20;;
16101;SDS011;56411;52.964;10.540;2023-04-01T00:06:54;8.63;;;3.20;;
16101;SDS011;56411;52.964;10.540;2023-04-01T00:09:21;10.47;;;3.13;;
16101;SDS011;56411;52.964;10.540;2023-04-01T00:11:49;9.43;;;2.83;;
16101;SDS011;56411;52.964;10.540;2023-04-01T00:14:16;9.83;;;3.20;;
16101;SDS011;56411;52.964;10.540;2023-04-01T00:16:44;8.33;;;3.00;;
16101;SDS011;56411;52.964;10.540;2023-04-01T00:19:11;9.63;;;3.27;;
16101;SDS011;56411;52.964;10.540;2023-04-01T00:21:38;8.40;;;2.83;;
16101;SDS011;56411;52.964;10.540;2023-04-01T00:24:16;7.57;;;2.87;;
16101;SDS011;56411;52.964;10.540;2023-04-01T00:26:44;8.50;;;2.77;;
16101;SDS011;56411;52.964;10.540;2023-04-01T00:29:12;8.50;;;2.80;;
16101;SDS011;56411;52.964;10.540;2023-04-01T00:31:39;6.40;;;2.63;;
16101;SDS011;56411;52.964;10.540;2023-04-01T00:34:07;9.47;;;2.90;;
16101;SDS011;56411;52.964;10.540;2023-04-01T00:36:34;12.07;;;2.97;;
16101;SDS011;56411;52.964;10.540;2023-04-01T00:39:01;9.43;;;2.87;;
16101;SDS011;56411;52.964;10.540;2023-04-01T00:41:30;10.13;;;2.83;;
16101;SDS011;56411;52.964;10.540;2023-04-01T00:44:12;9.73;;;3.10;;
16101;SDS011;56411;52.964;10.540;2023-04-01T00:46:43;11.00;;;3.10;;
16101;SDS011;56411;52.964;10.540;2023-04-01T00:49:10;9.50;;;2.87;;
16101;SDS011;56411;52.964;10.540;2023-04-01T00:51:38;8.23;;;3.00;;
16101;SDS011;56411;52.964;10.540;2023-04-01T00:54:07;8.80;;;2.90;;
16101;SDS011;56411;52.964;10.540;2023-04-01T00:56:37;8.97;;;3.00;;
16101;SDS011;56411;52.964;10.540;2023-04-01T00:59:10;9.63;;;3.10;;
16101;SDS011;56411;52.964;10.540;2023-04-01T01:01:40;9.27;;;2.70;;
16101;SDS011;56411;52.964;10.540;2023-04-01T01:04:19;13.10;;;3.20;;
16101;SDS011;56411;52.964;10.540;2023-04-01T01:06:54;8.47;;;2.93;;
16101;SDS011;56411;52.964;10.540;2023-04-01T01:09:30;8.53;;;3.10;;
16101;SDS011;56411;52.964;10.540;2023-04-01T01:12:10;12.07;;;3.13;;
16101;SDS011;56411;52.964;10.540;2023-04-01T01:14:44;10.50;;;3.33;;
16101;SDS011;56411;52.964;10.540;2023-04-01T01:17:30;8.33;;;2.90;;
16101;SDS011;56411;52.964;10.540;2023-04-01T01:20:16;7.27;;;2.53;;
16101;SDS011;56411;52.964;10.540;2023-04-01T01:23:03;8.93;;;3.20;;
16101;SDS011;56411;52.964;10.540;2023-04-01T01:25:46;8.70;;;3.33;;
16101;SDS011;56411;52.964;10.540;2023-04-01T01:28:24;9.97;;;3.20;;
16101;SDS011;56411;52.964;10.540;2023-04-01T01:31:02;9.00;;;3.33;;
16101;SDS011;56411;52.964;10.540;2023-04-01T01:36:30;7.30;;;3.40;;
16101;SDS011;56411;52.964;10.540;2023-04-01T01:39:00;9.97;;;3.80;;
16101;SDS011;56411;52.964;10.540;2023-04-01T01:41:28;12.73;;;3.97;;
16101;SDS011;56411;52.964;10.540;2023-04-01T01:43:57;9.83;;;3.53;;
16101;SDS011;56411;52.964;10.540;2023-04-01T01:46:29;8.37;;;3.23;;
16101;SDS011;56411;52.964;10.540;2023-04-01T01:48:57;9.43;;;3.57;;
16101;SDS011;56411;52.964;10.540;2023-04-01T01:51:26;9.07;;;3.60;;
16101;SDS011;56411;52.964;10.540;2023-04-01T01:53:56;13.03;;;3.90;;
16101;SDS011;56411;52.964;10.540;2023-04-01T01:56:23;12.27;;;3.43;;
16101;SDS011;56411;52.964;10.540;2023-04-01T01:58:54;12.30;;;3.80;;
16101;SDS011;56411;52.964;10.540;2023-04-01T02:01:25;10.30;;;3.70;;
16101;SDS011;56411;52.964;10.540;2023-04-01T02:03:54;10.87;;;3.60;;
16101;SDS011;56411;52.964;10.540;2023-04-01T02:06:23;10.40;;;3.40;;
16101;SDS011;56411;52.964;10.540;2023-04-01T02:08:55;11.40;;;3.87;;
16101;SDS011;56411;52.964;10.540;2023-04-01T02:11:25;13.80;;;3.93;;
16101;SDS011;56411;52.964;10.540;2023-04-01T02:13:58;8.03;;;3.30;;
16101;SDS011;56411;52.964;10.540;2023-04-01T02:16:32;12.33;;;3.47;;
16101;SDS011;56411;52.964;10.540;2023-04-01T02:19:02;9.07;;;3.10;;
16101;SDS011;56411;52.964;10.540;2023-04-01T02:21:32;10.57;;;3.10;;
16101;SDS011;56411;52.964;10.540;2023-04-01T02:24:03;9.40;;;3.10;;
16101;SDS011;56411;52.964;10.540;2023-04-01T02:26:34;11.30;;;3.13;;
16101;SDS011;56411;52.964;10.540;2023-04-01T02:29:01;9.27;;;3.13;;
16101;SDS011;56411;52.964;10.540;2023-04-01T02:31:31;7.50;;;3.00;;
16101;SDS011;56411;52.964;10.540;2023-04-01T02:33:58;12.03;;;3.50;;
16101;SDS011;56411;52.964;10.540;2023-04-01T02:36:26;10.87;;;3.70;;
16101;SDS011;56411;52.964;10.540;2023-04-01T02:38:54;9.20;;;3.20;;
16101;SDS011;56411;52.964;10.540;2023-04-01T02:41:29;10.10;;;3.30;;
16101;SDS011;56411;52.964;10.540;2023-04-01T02:43:56;8.23;;;3.27;;
16101;SDS011;56411;52.964;10.540;2023-04-01T02:46:24;9.23;;;3.10;;
16101;SDS011;56411;52.964;10.540;2023-04-01T02:48:51;10.37;;;3.30;;
16101;SDS011;56411;52.964;10.540;2023-04-01T02:51:18;8.67;;;3.07;;
16101;SDS011;56411;52.964;10.540;2023-04-01T02:53:45;11.10;;;3.17;;
16101;SDS011;56411;52.964;10.540;2023-04-01T02:56:12;9.97;;;3.20;;
16101;SDS011;56411;52.964;10.540;2023-04-01T02:58:41;11.67;;;3.40;;
16101;SDS011;56411;52.964;10.540;2023-04-01T03:01:08;11.30;;;3.60;;
16101;SDS011;56411;52.964;10.540;2023-04-01T03:03:35;12.77;;;3.90;;
16101;SDS011;56411;52.964;10.540;2023-04-01T03:06:04;11.10;;;4.03;;
16101;SDS011;56411;52.964;10.540;2023-04-01T03:08:32;12.73;;;4.40;;
16101;SDS011;56411;52.964;10.540;2023-04-01T03:10:59;11.60;;;4.20;;
16101;SDS011;56411;52.964;10.540;2023-04-01T03:13:26;13.57;;;4.50;;
16101;SDS011;56411;52.964;10.540;2023-04-01T03:15:54;13.33;;;4.20;;
16101;SDS011;56411;52.964;10.540;2023-04-01T03:18:21;12.57;;;4.13;;
16101;SDS011;56411;52.964;10.540;2023-04-01T03:20:49;11.60;;;4.10;;
16101;SDS011;56411;52.964;10.540;2023-04-01T03:23:16;10.00;;;3.97;;
16101;SDS011;56411;52.964;10.540;2023-04-01T03:25:44;10.67;;;3.73;;
16101;SDS011;56411;52.964;10.540;2023-04-01T03:28:11;11.63;;;4.07;;
16101;SDS011;56411;52.964;10.540;2023-04-01T03:30:38;11.53;;;4.10;;
16101;SDS011;56411;52.964;10.540;2023-04-01T03:33:07;10.43;;;4.10;;
16101;SDS011;56411;52.964;10.540;2023-04-01T03:35:34;12.47;;;4.10;;
16101;SDS011;56411;52.964;10.540;2023-04-01T03:38:02;11.07;;;4.07;;
16101;SDS011;56411;52.964;10.540;2023-04-01T03:40:29;14.47;;;4.93;;
16101;SDS011;56411;52.964;10.540;2023-04-01T03:42:58;15.30;;;4.60;;
16101;SDS011;56411;52.964;10.540;2023-04-01T03:45:25;13.10;;;4.43;;
16101;SDS011;56411;52.964;10.540;2023-04-01T03:47:52;13.33;;;4.87;;
16101;SDS011;56411;52.964;10.540;2023-04-01T03:50:21;14.57;;;5.10;;
16101;SDS011;56411;52.964;10.540;2023-04-01T03:52:48;14.60;;;5.10;;
16101;SDS011;56411;52.964;10.540;2023-04-01T03:55:16;12.23;;;4.73;;
16101;SDS011;56411;52.964;10.540;2023-04-01T03:57:43;13.50;;;4.73;;
16101;SDS011;56411;52.964;10.540;2023-04-01T04:00:12;13.60;;;5.33;;
16101;SDS011;56411;52.964;10.540;2023-04-01T04:02:40;13.20;;;4.67;;
16101;SDS011;56411;52.964;10.540;2023-04-01T04:05:07;13.37;;;5.03;;
16101;SDS011;56411;52.964;10.540;2023-04-01T04:07:36;11.77;;;4.87;;
16101;SDS011;56411;52.964;10.540;2023-04-01T04:10:04;14.37;;;5.33;;
16101;SDS011;56411;52.964;10.540;2023-04-01T04:12:31;12.83;;;5.17;;
16101;SDS011;56411;52.964;10.540;2023-04-01T04:14:58;14.70;;;5.37;;
16101;SDS011;56411;52.964;10.540;2023-04-01T04:17:25;13.13;;;5.93;;
16101;SDS011;56411;52.964;10.540;2023-04-01T04:19:52;14.87;;;5.70;;
16101;SDS011;56411;52.964;10.540;2023-04-01T04:22:19;13.97;;;5.40;;
16101;SDS011;56411;52.964;10.540;2023-04-01T04:24:48;14.77;;;5.87;;
16101;SDS011;56411;52.964;10.540;2023-04-01T04:27:15;15.23;;;5.67;;
16101;SDS011;56411;52.964;10.540;2023-04-01T04:29:42;13.00;;;6.23;;
16101;SDS011;56411;52.964;10.540;2023-04-01T04:32:09;14.10;;;6.10;;
16101;SDS011;56411;52.964;10.540;2023-04-01T04:34:36;13.10;;;6.20;;
16101;SDS011;56411;52.964;10.540;2023-04-01T04:37:03;19.23;;;6.50;;
16101;SDS011;56411;52.964;10.540;2023-04-01T04:39:30;15.90;;;6.67;;
16101;SDS011;56411;52.964;10.540;2023-04-01T04:41:59;17.03;;;6.03;;
16101;SDS011;56411;52.964;10.540;2023-04-01T04:44:26;14.93;;;5.87;;
16101;SDS011;56411;52.964;10.540;2023-04-01T04:46:53;13.43;;;5.80;;
16101;SDS011;56411;52.964;10.540;2023-04-01T04:49:20;16.37;;;6.37;;
16101;SDS011;56411;52.964;10.540;2023-04-01T04:51:48;16.93;;;6.80;;
16101;SDS011;56411;52.964;10.540;2023-04-01T04:54:15;15.03;;;5.77;;
16101;SDS011;56411;52.964;10.540;2023-04-01T04:56:42;16.80;;;6.07;;
16101;SDS011;56411;52.964;10.540;2023-04-01T04:59:10;14.73;;;5.27;;
16101;SDS011;56411;52.964;10.540;2023-04-01T05:01:38;12.70;;;4.90;;
16101;SDS011;56411;52.964;10.540;2023-04-01T05:04:05;11.73;;;5.03;;
16101;SDS011;56411;52.964;10.540;2023-04-01T05:06:32;14.07;;;5.20;;
16101;SDS011;56411;52.964;10.540;2023-04-01T05:09:02;12.50;;;5.13;;
16101;SDS011;56411;52.964;10.540;2023-04-01T05:11:29;16.43;;;5.17;;
16101;SDS011;56411;52.964;10.540;2023-04-01T05:13:56;13.13;;;4.93;;
16101;SDS011;56411;52.964;10.540;2023-04-01T05:16:25;14.37;;;5.13;;
16101;SDS011;56411;52.964;10.540;2023-04-01T05:18:52;13.70;;;5.40;;
16101;SDS011;56411;52.964;10.540;2023-04-01T05:21:20;11.63;;;4.60;;
16101;SDS011;56411;52.964;10.540;2023-04-01T05:23:47;15.27;;;5.00;;
16101;SDS011;56411;52.964;10.540;2023-04-01T05:26:14;11.07;;;4.60;;
16101;SDS011;56411;52.964;10.540;2023-04-01T05:28:41;11.30;;;4.67;;
16101;SDS011;56411;52.964;10.540;2023-04-01T05:31:09;13.07;;;4.73;;
16101;SDS011;56411;52.964;10.540;2023-04-01T05:33:37;13.00;;;4.57;;
16101;SDS011;56411;52.964;10.540;2023-04-01T05:36:05;13.50;;;4.60;;
16101;SDS011;56411;52.964;10.540;2023-04-01T05:38:33;12.77;;;4.50;;
16101;SDS011;56411;52.964;10.540;2023-04-01T05:41:03;11.83;;;4.33;;
16101;SDS011;56411;52.964;10.540;2023-04-01T05:43:30;12.13;;;4.10;;
16101;SDS011;56411;52.964;10.540;2023-04-01T05:46:00;12.97;;;4.70;;
16101;SDS011;56411;52.964;10.540;2023-04-01T05:48:28;10.17;;;4.43;;
16101;SDS011;56411;52.964;10.540;2023-04-01T05:50:57;11.03;;;4.10;;
16101;SDS011;56411;52.964;10.540;2023-04-01T05:53:24;11.53;;;4.60;;
16101;SDS011;56411;52.964;10.540;2023-04-01T05:55:51;10.93;;;4.30;;
16101;SDS011;56411;52.964;10.540;2023-04-01T05:58:19;10.40;;;3.97;;
16101;SDS011;56411;52.964;10.540;2023-04-01T06:00:46;12.70;;;4.50;;
16101;SDS011;56411;52.964;10.540;2023-04-01T06:03:13;10.00;;;3.60;;
16101;SDS011;56411;52.964;10.540;2023-04-01T06:05:41;11.67;;;3.90;;
16101;SDS011;56411;52.964;10.540;2023-04-01T06:08:12;9.03;;;3.97;;
16101;SDS011;56411;52.964;10.540;2023-04-01T06:10:44;11.33;;;3.73;;
16101;SDS011;56411;52.964;10.540;2023-04-01T06:13:24;13.17;;;4.07;;
16101;SDS011;56411;52.964;10.540;2023-04-01T06:16:05;11.00;;;3.67;;
16101;SDS011;56411;52.964;10.540;2023-04-01T06:18:52;10.93;;;3.70;;
16101;SDS011;56411;52.964;10.540;2023-04-01T06:24:26;11.40;;;3.90;;
16101;SDS011;56411;52.964;10.540;2023-04-01T06:27:10;10.83;;;3.90;;
16101;SDS011;56411;52.964;10.540;2023-04-01T06:33:06;9.73;;;3.60;;
16101;SDS011;56411;52.964;10.540;2023-04-01T06:36:19;11.52;;;3.80;;
16101;SDS011;56411;52.964;10.540;2023-04-01T06:43:10;8.03;;;3.60;;
16101;SDS011;56411;52.964;10.540;2023-04-01T06:49:41;9.30;;;3.83;;
16101;SDS011;56411;52.964;10.540;2023-04-01T06:53:02;9.00;;;3.53;;
16101;SDS011;56411;52.964;10.540;2023-04-01T06:59:16;10.70;;;4.67;;
16101;SDS011;56411;52.964;10.540;2023-04-01T07:05:40;9.87;;;3.60;;
16101;SDS011;56411;52.964;10.540;2023-04-01T07:15:15;10.63;;;4.13;;
16101;SDS011;56411;52.964;10.540;2023-04-01T07:17:51;11.20;;;4.23;;
16101;SDS011;56411;52.964;10.540;2023-04-01T07:20:23;8.27;;;3.50;;
16101;SDS011;56411;52.964;10.540;2023-04-01T07:22:53;7.88;;;3.55;;
16101;SDS011;56411;52.964;10.540;2023-04-01T07:25:24;9.23;;;3.80;;
16101;SDS011;56411;52.964;10.540;2023-04-01T07:28:00;8.77;;;4.03;;
16101;SDS011;56411;52.964;10.540;2023-04-01T07:30:39;8.85;;;4.03;;
16101;SDS011;56411;52.964;10.540;2023-04-01T07:33:16;9.55;;;3.75;;
16101;SDS011;56411;52.964;10.540;2023-04-01T07:35:49;10.98;;;4.20;;
16101;SDS011;56411;52.964;10.540;2023-04-01T07:38:26;10.70;;;4.65;;
16101;SDS011;56411;52.964;10.540;2023-04-01T07:41:07;10.15;;;4.70;;
16101;SDS011;56411;52.964;10.540;2023-04-01T07:43:54;10.70;;;4.40;;
16101;SDS011;56411;52.964;10.540;2023-04-01T07:46:40;10.23;;;4.43;;
16101;SDS011;56411;52.964;10.540;2023-04-01T07:49:21;9.48;;;4.93;;
16101;SDS011;56411;52.964;10.540;2023-04-01T07:51:54;11.20;;;5.40;;
16101;SDS011;56411;52.964;10.540;2023-04-01T07:54:29;10.30;;;4.50;;
16101;SDS011;56411;52.964;10.540;2023-04-01T07:57:06;9.05;;;4.75;;
16101;SDS011;56411;52.964;10.540;2023-04-01T07:59:40;8.73;;;4.28;;
16101;SDS011;56411;52.964;10.540;2023-04-01T08:02:18;8.38;;;4.28;;
16101;SDS011;56411;52.964;10.540;2023-04-01T08:04:57;11.57;;;4.50;;
16101;SDS011;56411;52.964;10.540;2023-04-01T08:07:36;10.55;;;4.28;;
16101;SDS011;56411;52.964;10.540;2023-04-01T08:10:13;11.50;;;4.05;;
16101;SDS011;56411;52.964;10.540;2023-04-01T08:12:48;12.02;;;4.05;;
16101;SDS011;56411;52.964;10.540;2023-04-01T08:15:23;9.05;;;3.80;;
16101;SDS011;56411;52.964;10.540;2023-04-01T08:20:47;7.40;;;3.63;;
16101;SDS011;56411;52.964;10.540;2023-04-01T08:23:19;19.63;;;8.93;;
16101;SDS011;56411;52.964;10.540;2023-04-01T08:25:50;20.73;;;8.93;;
16101;SDS011;56411;52.964;10.540;2023-04-01T08:28:22;8.43;;;3.58;;
16101;SDS011;56411;52.964;10.540;2023-04-01T08:30:56;8.50;;;3.70;;
16101;SDS011;56411;52.964;10.540;2023-04-01T08:33:28;7.97;;;3.10;;
16101;SDS011;56411;52.964;10.540;2023-04-01T08:35:59;7.47;;;3.10;;
16101;SDS011;56411;52.964;10.540;2023-04-01T08:38:32;5.10;;;2.90;;
16101;SDS011;56411;52.964;10.540;2023-04-01T08:41:26;8.68;;;3.20;;
16101;SDS011;56411;52.964;10.540;2023-04-01T08:44:25;6.43;;;2.97;;
16101;SDS011;56411;52.964;10.540;2023-04-01T08:47:35;6.80;;;2.90;;
16101;SDS011;56411;52.964;10.540;2023-04-01T08:53:33;2.55;;;1.70;;
16101;SDS011;56411;52.964;10.540;2023-04-01T08:56:14;1.88;;;1.52;;
16101;SDS011;56411;52.964;10.540;2023-04-01T08:58:51;1.60;;;1.40;;
16101;SDS011;56411;52.964;10.540;2023-04-01T09:01:30;2.10;;;1.20;;
16101;SDS011;56411;52.964;10.540;2023-04-01T09:04:25;1.27;;;1.10;;
16101;SDS011;56411;52.964;10.540;2023-04-01T09:07:09;1.20;;;1.20;;
16101;SDS011;56411;52.964;10.540;2023-04-01T09:09:56;2.80;;;1.57;;
16101;SDS011;56411;52.964;10.540;2023-04-01T09:12:48;1.70;;;1.60;;
16101;SDS011;56411;52.964;10.540;2023-04-01T09:15:36;2.57;;;1.63;;
16101;SDS011;56411;52.964;10.540;2023-04-01T09:18:22;1.60;;;1.50;;
16101;SDS011;56411;52.964;10.540;2023-04-01T09:21:14;2.03;;;1.60;;
16101;SDS011;56411;52.964;10.540;2023-04-01T09:23:56;1.73;;;1.60;;
16101;SDS011;56411;52.964;10.540;2023-04-01T09:27:02;2.70;;;1.80;;
16101;SDS011;56411;52.964;10.540;2023-04-01T09:29:37;1.70;;;1.60;;
16101;SDS011;56411;52.964;10.540;2023-04-01T09:32:20;1.80;;;1.70;;
16101;SDS011;56411;52.964;10.540;2023-04-01T09:35:10;1.77;;;1.60;;
16101;SDS011;56411;52.964;10.540;2023-04-01T09:37:51;1.93;;;1.70;;
16101;SDS011;56411;52.964;10.540;2023-04-01T09:40:30;1.80;;;1.57;;
16101;SDS011;56411;52.964;10.540;2023-04-01T09:43:06;1.43;;;1.33;;
16101;SDS011;56411;52.964;10.540;2023-04-01T09:46:10;1.87;;;1.60;;
16101;SDS011;56411;52.964;10.540;2023-04-01T09:51:48;1.40;;;1.30;;
16101;SDS011;56411;52.964;10.540;2023-04-01T09:54:28;2.00;;;1.60;;
16101;SDS011;56411;52.964;10.540;2023-04-01T10:03:28;1.80;;;1.33;;
16101;SDS011;56411;52.964;10.540;2023-04-01T10:06:27;2.33;;;1.20;;
16101;SDS011;56411;52.964;10.540;2023-04-01T10:09:33;1.37;;;1.27;;
16101;SDS011;56411;52.964;10.540;2023-04-01T10:15:28;2.03;;;1.50;;
16101;SDS011;56411;52.964;10.540;2023-04-01T10:18:27;1.70;;;1.60;;
16101;SDS011;56411;52.964;10.540;2023-04-01T10:21:11;1.97;;;1.50;;
16101;SDS011;56411;52.964;10.540;2023-04-01T10:24:16;2.60;;;1.50;;
16101;SDS011;56411;52.964;10.540;2023-04-01T10:26:58;7.27;;;3.90;;
16101;SDS011;56411;52.964;10.540;2023-04-01T10:29:50;1.87;;;1.67;;
16101;SDS011;56411;52.964;10.540;2023-04-01T10:33:01;2.20;;;1.70;;
16101;SDS011;56411;52.964;10.540;2023-04-01T10:35:56;2.07;;;1.50;;
16101;SDS011;56411;52.964;10.540;2023-04-01T10:38:48;2.63;;;1.80;;
16101;SDS011;56411;52.964;10.540;2023-04-01T10:41:44;8.47;;;3.53;;
16101;SDS011;56411;52.964;10.540;2023-04-01T10:51:04;1.50;;;1.40;;
16101;SDS011;56411;52.964;10.540;2023-04-01T10:54:02;1.63;;;1.53;;
16101;SDS011;56411;52.964;10.540;2023-04-01T10:56:55;2.70;;;1.60;;
16101;SDS011;56411;52.964;10.540;2023-04-01T11:05:36;3.87;;;2.20;;
16101;SDS011;56411;52.964;10.540;2023-04-01T11:11:47;3.90;;;2.17;;
16101;SDS011;56411;52.964;10.540;2023-04-01T11:21:03;7.07;;;3.23;;
16101;SDS011;56411;52.964;10.540;2023-04-01T11:24:06;4.37;;;2.37;;
16101;SDS011;56411;52.964;10.540;2023-04-01T11:26:54;3.80;;;2.20;;
16101;SDS011;56411;52.964;10.540;2023-04-01T11:32:34;2.93;;;1.80;;
16101;SDS011;56411;52.964;10.540;2023-04-01T11:38:35;3.73;;;1.93;;
16101;SDS011;56411;52.964;10.540;2023-04-01T11:41:20;6.60;;;3.00;;
16101;SDS011;56411;52.964;10.540;2023-04-01T11:44:04;3.20;;;1.80;;
16101;SDS011;56411;52.964;10.540;2023-04-01T11:46:45;2.50;;;1.70;;
16101;SDS011;56411;52.964;10.540;2023-04-01T11:49:28;4.60;;;2.70;;
16101;SDS011;56411;52.964;10.540;2023-04-01T11:52:06;3.53;;;2.10;;
16101;SDS011;56411;52.964;10.540;2023-04-01T11:57:56;6.17;;;3.13;;
16101;SDS011;56411;52.964;10.540;2023-04-01T12:01:07;2.27;;;1.70;;
16101;SDS011;56411;52.964;10.540;2023-04-01T12:04:16;3.17;;;2.10;;
16101;SDS011;56411;52.964;10.540;2023-04-01T12:07:06;7.07;;;3.10;;
16101;SDS011;56411;52.964;10.540;2023-04-01T12:09:47;7.43;;;3.30;;
16101;SDS011;56411;52.964;10.540;2023-04-01T12:12:27;2.80;;;2.00;;
16101;SDS011;56411;52.964;10.540;2023-04-01T12:15:05;50.93;;;32.00;;
16101;SDS011;56411;52.964;10.540;2023-04-01T12:17:46;11.63;;;5.10;;
16101;SDS011;56411;52.964;10.540;2023-04-01T12:20:22;2.77;;;1.77;;
16101;SDS011;56411;52.964;10.540;2023-04-01T12:22:58;3.40;;;2.00;;
16101;SDS011;56411;52.964;10.540;2023-04-01T12:25:52;2.43;;;1.80;;
16101;SDS011;56411;52.964;10.540;2023-04-01T12:28:44;3.30;;;1.90;;
16101;SDS011;56411;52.964;10.540;2023-04-01T12:31:42;4.17;;;2.30;;
16101;SDS011;56411;52.964;10.540;2023-04-01T12:34:27;2.67;;;1.90;;
16101;SDS011;56411;52.964;10.540;2023-04-01T12:37:34;3.80;;;2.23;;
16101;SDS011;56411;52.964;10.540;2023-04-01T12:40:17;4.20;;;2.17;;
16101;SDS011;56411;52.964;10.540;2023-04-01T12:42:57;5.50;;;2.63;;
16101;SDS011;56411;52.964;10.540;2023-04-01T12:45:38;11.37;;;5.30;;
16101;SDS011;56411;52.964;10.540;2023-04-01T13:00:55;4.43;;;1.70;;
16101;SDS011;56411;52.964;10.540;2023-04-01T13:03:37;5.47;;;2.27;;
16101;SDS011;56411;52.964;10.540;2023-04-01T13:06:25;2.47;;;1.70;;
16101;SDS011;56411;52.964;10.540;2023-04-01T13:09:11;2.33;;;1.77;;
16101;SDS011;56411;52.964;10.540;2023-04-01T13:11:55;9.57;;;3.90;;
16101;SDS011;56411;52.964;10.540;2023-04-01T13:14:50;3.07;;;2.00;;
16101;SDS011;56411;52.964;10.540;2023-04-01T13:17:41;8.07;;;2.97;;
16101;SDS011;56411;52.964;10.540;2023-04-01T13:20:16;6.93;;;3.10;;
16101;SDS011;56411;52.964;10.540;2023-04-01T13:22:59;9.57;;;4.17;;
16101;SDS011;56411;52.964;10.540;2023-04-01T13:25:36;5.57;;;2.40;;
16101;SDS011;56411;52.964;10.540;2023-04-01T13:28:10;4.57;;;2.30;;
16101;SDS011;56411;52.964;10.540;2023-04-01T13:30:43;5.20;;;2.10;;
16101;SDS011;56411;52.964;10.540;2023-04-01T13:33:20;5.60;;;2.07;;
16101;SDS011;56411;52.964;10.540;2023-04-01T13:35:56;5.00;;;2.53;;
16101;SDS011;56411;52.964;10.540;2023-04-01T13:41:32;4.00;;;2.20;;
16101;SDS011;56411;52.964;10.540;2023-04-01T13:44:16;4.47;;;2.30;;
16101;SDS011;56411;52.964;10.540;2023-04-01T13:56:00;4.63;;;2.43;;
16101;SDS011;56411;52.964;10.540;2023-04-01T13:58:48;6.93;;;2.70;;
16101;SDS011;56411;52.964;10.540;2023-04-01T14:01:35;4.63;;;2.37;;
16101;SDS011;56411;52.964;10.540;2023-04-01T14:04:15;4.67;;;2.60;;
16101;SDS011;56411;52.964;10.540;2023-04-01T14:07:07;6.37;;;2.70;;
16101;SDS011;56411;52.964;10.540;2023-04-01T14:09:51;5.27;;;2.73;;
16101;SDS011;56411;52.964;10.540;2023-04-01T14:12:31;6.17;;;2.87;;
16101;SDS011;56411;52.964;10.540;2023-04-01T14:15:20;7.20;;;2.80;;
16101;SDS011;56411;52.964;10.540;2023-04-01T14:21:03;4.47;;;2.40;;
16101;SDS011;56411;52.964;10.540;2023-04-01T14:23:55;5.33;;;2.43;;
16101;SDS011;56411;52.964;10.540;2023-04-01T14:29:36;4.80;;;2.50;;
16101;SDS011;56411;52.964;10.540;2023-04-01T14:32:13;5.00;;;2.70;;
16101;SDS011;56411;52.964;10.540;2023-04-01T14:34:59;5.70;;;2.80;;
16101;SDS011;56411;52.964;10.540;2023-04-01T14:37:58;6.40;;;2.77;;
16101;SDS011;56411;52.964;10.540;2023-04-01T14:40:36;4.60;;;2.50;;
16101;SDS011;56411;52.964;10.540;2023-04-01T14:46:17;6.53;;;2.90;;
16101;SDS011;56411;52.964;10.540;2023-04-01T14:49:04;4.97;;;2.60;;
16101;SDS011;56411;52.964;10.540;2023-04-01T14:52:26;5.80;;;2.70;;
16101;SDS011;56411;52.964;10.540;2023-04-01T14:55:25;5.97;;;2.67;;
16101;SDS011;56411;52.964;10.540;2023-04-01T15:01:30;4.53;;;2.60;;
16101;SDS011;56411;52.964;10.540;2023-04-01T15:12:02;6.40;;;3.00;;
16101;SDS011;56411;52.964;10.540;2023-04-01T15:17:55;7.07;;;2.80;;
16101;SDS011;56411;52.964;10.540;2023-04-01T15:20:33;8.00;;;2.97;;
16101;SDS011;56411;52.964;10.540;2023-04-01T15:23:20;6.70;;;3.13;;
16101;SDS011;56411;52.964;10.540;2023-04-01T15:26:01;4.97;;;2.87;;
16101;SDS011;56411;52.964;10.540;2023-04-01T15:28:50;6.27;;;3.00;;
16101;SDS011;56411;52.964;10.540;2023-04-01T15:31:31;7.23;;;3.10;;
16101;SDS011;56411;52.964;10.540;2023-04-01T15:34:11;7.20;;;2.50;;
16101;SDS011;56411;52.964;10.540;2023-04-01T15:36:56;5.90;;;2.80;;
16101;SDS011;56411;52.964;10.540;2023-04-01T15:39:31;6.83;;;2.80;;
16101;SDS011;56411;52.964;10.540;2023-04-01T15:42:24;6.17;;;2.90;;
16101;SDS011;56411;52.964;10.540;2023-04-01T15:45:10;5.03;;;2.70;;
16101;SDS011;56411;52.964;10.540;2023-04-01T15:47:45;7.73;;;2.90;;
16101;SDS011;56411;52.964;10.540;2023-04-01T15:56:24;5.87;;;2.80;;
16101;SDS011;56411;52.964;10.540;2023-04-01T15:59:06;6.63;;;3.00;;
16101;SDS011;56411;52.964;10.540;2023-04-01T16:01:43;6.13;;;2.70;;
16101;SDS011;56411;52.964;10.540;2023-04-01T16:07:24;6.90;;;2.87;;
16101;SDS011;56411;52.964;10.540;2023-04-01T16:13:12;7.47;;;3.00;;
16101;SDS011;56411;52.964;10.540;2023-04-01T16:15:52;7.67;;;3.37;;
16101;SDS011;56411;52.964;10.540;2023-04-01T16:18:37;7.30;;;3.17;;
16101;SDS011;56411;52.964;10.540;2023-04-01T16:21:19;7.33;;;3.33;;
16101;SDS011;56411;52.964;10.540;2023-04-01T16:23:56;9.73;;;3.33;;
16101;SDS011;56411;52.964;10.540;2023-04-01T16:26:28;6.87;;;3.10;;
16101;SDS011;56411;52.964;10.540;2023-04-01T16:29:05;8.23;;;3.23;;
16101;SDS011;56411;52.964;10.540;2023-04-01T16:31:38;8.30;;;3.33;;
16101;SDS011;56411;52.964;10.540;2023-04-01T16:34:14;6.53;;;3.27;;
16101;SDS011;56411;52.964;10.540;2023-04-01T16:36:45;9.73;;;3.47;;
16101;SDS011;56411;52.964;10.540;2023-04-01T16:39:27;9.63;;;3.80;;
16101;SDS011;56411;52.964;10.540;2023-04-01T16:42:14;8.30;;;3.40;;
16101;SDS011;56411;52.964;10.540;2023-04-01T16:44:53;7.53;;;3.50;;
16101;SDS011;56411;52.964;10.540;2023-04-01T16:47:27;8.83;;;3.40;;
16101;SDS011;56411;52.964;10.540;2023-04-01T16:49:58;7.30;;;3.47;;
16101;SDS011;56411;52.964;10.540;2023-04-01T16:52:36;9.03;;;3.50;;
16101;SDS011;56411;52.964;10.540;2023-04-01T16:55:17;9.73;;;3.97;;
16101;SDS011;56411;52.964;10.540;2023-04-01T16:57:47;10.67;;;4.20;;
16101;SDS011;56411;52.964;10.540;2023-04-01T17:00:22;10.07;;;4.50;;
16101;SDS011;56411;52.964;10.540;2023-04-01T17:02:56;10.23;;;4.17;;
16101;SDS011;56411;52.964;10.540;2023-04-01T17:05:42;9.20;;;4.03;;
16101;SDS011;56411;52.964;10.540;2023-04-01T17:08:17;9.17;;;4.40;;
16101;SDS011;56411;52.964;10.540;2023-04-01T17:11:09;11.40;;;4.40;;
16101;SDS011;56411;52.964;10.540;2023-04-01T17:13:46;9.57;;;4.63;;
16101;SDS011;56411;52.964;10.540;2023-04-01T17:19:37;10.70;;;5.23;;
16101;SDS011;56411;52.964;10.540;2023-04-01T17:22:22;12.07;;;4.63;;
16101;SDS011;56411;52.964;10.540;2023-04-01T17:25:03;10.63;;;4.70;;
16101;SDS011;56411;52.964;10.540;2023-04-01T17:27:47;11.70;;;4.33;;
16101;SDS011;56411;52.964;10.540;2023-04-01T17:30:23;10.37;;;4.63;;
16101;SDS011;56411;52.964;10.540;2023-04-01T17:33:06;11.03;;;4.73;;
16101;SDS011;56411;52.964;10.540;2023-04-01T17:35:54;13.50;;;5.67;;
16101;SDS011;56411;52.964;10.540;2023-04-01T17:38:34;12.63;;;5.57;;
16101;SDS011;56411;52.964;10.540;2023-04-01T17:41:16;12.00;;;5.60;;
16101;SDS011;56411;52.964;10.540;2023-04-01T17:43:55;13.90;;;5.77;;
16101;SDS011;56411;52.964;10.540;2023-04-01T17:46:32;15.07;;;5.93;;
16101;SDS011;56411;52.964;10.540;2023-04-01T17:49:11;14.17;;;6.30;;
16101;SDS011;56411;52.964;10.540;2023-04-01T17:51:51;15.07;;;6.57;;
16101;SDS011;56411;52.964;10.540;2023-04-01T17:54:26;14.53;;;6.37;;